Grand Canyon, AZ (86023)

7:05 AM MST on July 30, 2014 (GMT -0700)
Grand Canyon National Park (KGCN) Elev 6608 ft | 35.95 °N, 112.15 °W | Change Station

Current weather conditions updated 11 minutes ago

Clear
Clear
59 °F
Feels Like 59 °F
N
0
Wind Variable Wind from North

Today is forecast to be Much Warmer than yesterday. Slight chance of a thunderstorm.

Today
High -- | Low -- °F
--% Chance of Precip.
Yesterday
High -- | Low -- °F
Precip. -- in
5:34 AM 7:35 PM
Waxing Crescent, 12% visible
Pressure 30.01 in
Visibility 10.0 miles
Clouds Clear
Dew Point 51 °F
Humidity 75%
Rainfall 0.00 in
Snow Depth Not available.
UV 1 out of 12
Pollen 4.40 out of 12
Air Quality Not available.
Flu Activity Not available.
METAR KGCN 301354Z 00000KT 10SM CLR 15/11 A3032 RMK AO2 SLP163 T01500106

More Conditions Fewer Conditions

Pressure 30.01 in
Visibility 10.0 miles
Clouds Clear
Dew Point 51 °F
Humidity 75%
Rainfall 0.00 in
Snow Depth Not available.
UV 1 out of 12
Pollen 4.40 out of 12
Air Quality Not available.
Flu Activity Not available.
METAR KGCN 301354Z 00000KT 10SM CLR 15/11 A3032 RMK AO2 SLP163 T01500106

More Conditions Fewer Conditions

10-Day Weather Forecast

Almanac

Astronomy

Jul. 30, 2014 Rise Set
Actual Time 5:34 AM MST 7:35 PM MST
Civil Twilight 5:05 AM MST 8:03 PM MST
Nautical Twilight 4:31 AM MST 8:38 PM MST
Astronomical Twilight 3:54 AM MST 9:15 PM MST
Moon 9:01 AM MST 9:28 PM MST
Length of Visible Light 14h 57m
Length of Day
14h 00m
Tomorrow will be 1m 41s shorter.
Waxing Crescent, 12% of the Moon is Illuminated
Today
Waxing Crescent
Aug 3
First Quarter
Aug 10
Full
Aug 17
Last Quarter
Aug 25
New

Today's Extremes

State Highs State Lows

Community

WunderPhotos

Upload Photos

1,739,082 photos uploaded!

Nearby

Snow Depth

Station Depth Elevation
Snowslide Canyon 0 in 9730 ft
White Horse Lake 1 in 7180 ft
Mormon Mountain 0 in 7500 ft
Workman Creek 1 in 6900 ft
Maverick Fork 0 in 9200 ft

Earthquake Activity

City Distance Mag. Time & Date
No recent earthquake activity has been reported nearby.
Minimum magnitude displayed is 2.5.

Coastal Water Temperatures

Place Temperature
No Stations Reporting

Nearby Weather Stations

Station Location Temp. Heat Index Dew Point Humidity Wind Precip. Elev Updated Type
APRSWXNET Indian Gardens AZ US, Grand Canyon, AZ 76 °F 78 °F 57 °F 51% North  at  0 mph 0.00 in / hr 3799 ft 6:26 AM MST MADIS
APRSWXNET Phantom Ranch AZ US, Grand Canyon, AZ 81 °F 81 °F 57 °F 44% North  at  0 mph 0.78 in / hr 2549 ft 6:30 AM MST MADIS

Show More Stations Show Fewer Stations